createdAt,value
2023-01-26T00:00:29.589Z,183.6
2023-01-26T00:01:39.757Z,177.6
2023-01-26T00:02:49.919Z,174.1
2023-01-26T00:04:00.083Z,163
2023-01-26T00:05:10.245Z,171.5
2023-01-26T00:06:20.409Z,176
2023-01-26T00:07:30.569Z,185.7
2023-01-26T00:08:40.733Z,166.9
2023-01-26T00:09:50.894Z,163.1
2023-01-26T00:11:01.065Z,172.4
2023-01-26T00:12:11.227Z,185.1
2023-01-26T00:13:21.384Z,166.7
2023-01-26T00:14:31.556Z,194.2
2023-01-26T00:15:41.712Z,181.7
2023-01-26T00:16:51.878Z,174.8
2023-01-26T00:18:02.047Z,178.4
2023-01-26T00:19:12.207Z,174.1
2023-01-26T00:20:22.503Z,183.3
2023-01-26T00:21:32.701Z,181.5
2023-01-26T00:22:42.943Z,180.7
2023-01-26T00:23:53.191Z,184.4
2023-01-26T00:25:03.437Z,176.5
2023-01-26T00:26:13.685Z,185.9
2023-01-26T00:27:23.931Z,193.5
2023-01-26T00:28:34.174Z,190.2
2023-01-26T00:29:44.419Z,193.4
2023-01-26T00:30:54.666Z,182.6
2023-01-26T00:32:04.919Z,188.1
2023-01-26T00:33:15.165Z,194.9
2023-01-26T00:34:25.402Z,184.3
2023-01-26T00:35:35.841Z,174.1
2023-01-26T00:36:46.270Z,197.9
2023-01-26T00:37:56.708Z,182.2
2023-01-26T00:39:07.132Z,182.6
2023-01-26T00:40:17.572Z,183.1
2023-01-26T00:41:27.997Z,201.9
2023-01-26T00:42:38.433Z,194.1
2023-01-26T00:43:48.863Z,212.6
2023-01-26T00:44:59.297Z,207.7
2023-01-26T00:46:09.729Z,203.6
2023-01-26T00:47:20.156Z,204.5
2023-01-26T00:48:30.590Z,219.4
2023-01-26T00:49:41.018Z,233.3
2023-01-26T00:52:20.184Z,203.2
2023-01-26T00:53:34.316Z,218.5
2023-01-26T00:54:48.441Z,212.1
2023-01-26T00:55:59.237Z,208.1
2023-01-26T00:57:09.000Z,232.1
2023-01-26T00:58:19.119Z,224.4
2023-01-26T00:59:29.229Z,200.3
2023-01-26T01:00:39.354Z,217.2
2023-01-26T01:01:49.464Z,195.9
2023-01-26T01:02:59.587Z,206.1
2023-01-26T01:04:09.697Z,217.3
2023-01-26T01:05:19.817Z,213.1
2023-01-26T01:06:29.939Z,181.1
2023-01-26T01:07:40.051Z,248
2023-01-26T01:08:50.175Z,178.2
2023-01-26T01:10:00.291Z,196.2
2023-01-26T01:11:10.401Z,213.2
2023-01-26T01:12:20.525Z,195.4
2023-01-26T01:13:30.643Z,185.2
2023-01-26T01:14:40.756Z,200.4
2023-01-26T01:15:50.869Z,186.6
2023-01-26T01:17:00.989Z,207.4
2023-01-26T01:18:11.104Z,214.2
2023-01-26T01:19:21.221Z,193.7
2023-01-26T01:20:31.346Z,186.4
2023-01-26T01:21:41.460Z,182
2023-01-26T01:22:51.572Z,176.6
2023-01-26T01:24:01.696Z,188.1
2023-01-26T01:25:11.811Z,196.1
2023-01-26T01:26:21.981Z,182.9
2023-01-26T01:27:32.137Z,187.4
2023-01-26T01:28:42.301Z,186.3
2023-01-26T01:29:52.471Z,183.3
2023-01-26T01:31:02.633Z,183.5
2023-01-26T01:32:12.794Z,176.2
2023-01-26T01:33:22.955Z,191.1
2023-01-26T01:34:33.119Z,187.2
2023-01-26T01:35:43.281Z,173.4
2023-01-26T01:36:53.447Z,187.1
2023-01-26T01:38:03.607Z,164.2
2023-01-26T01:39:13.775Z,177.7
2023-01-26T01:40:23.943Z,167.6
2023-01-26T01:41:34.191Z,176.1
2023-01-26T01:42:44.433Z,164.5
2023-01-26T01:43:54.682Z,154.1
2023-01-26T01:45:04.928Z,136.5
2023-01-26T01:46:15.170Z,148.3
2023-01-26T01:47:25.422Z,149
2023-01-26T01:48:35.660Z,125.7
2023-01-26T01:49:45.909Z,145
2023-01-26T01:50:56.150Z,131.6
2023-01-26T01:52:06.404Z,136.4
2023-01-26T01:53:16.646Z,131.9
2023-01-26T01:54:26.896Z,139.8
2023-01-26T01:55:37.136Z,142.4
2023-01-26T01:58:15.936Z,132.3
2023-01-26T01:59:26.371Z,130.8
2023-01-26T02:00:36.794Z,136.8
2023-01-26T02:01:47.225Z,132.7
2023-01-26T02:02:57.661Z,141.2
2023-01-26T02:04:08.089Z,130.3
2023-01-26T02:05:18.519Z,123
2023-01-26T02:06:28.953Z,120.8
2023-01-26T02:07:39.381Z,131.7
2023-01-26T02:08:49.815Z,126
2023-01-26T02:10:00.252Z,135.9
2023-01-26T02:11:10.679Z,156.2
2023-01-26T02:12:21.106Z,148.4
2023-01-26T02:13:31.921Z,128
2023-01-26T02:14:46.049Z,140.5
2023-01-26T02:16:00.177Z,139.9
2023-01-26T02:17:14.307Z,144.5
2023-01-26T02:18:28.441Z,146.9
2023-01-26T02:19:42.566Z,121.9
2023-01-26T02:20:56.692Z,130
2023-01-26T02:22:10.825Z,132
2023-01-26T02:23:24.951Z,135.7
2023-01-26T02:24:39.079Z,120.7
2023-01-26T02:25:53.204Z,134.5
2023-01-26T02:27:07.332Z,127
2023-01-26T02:28:21.462Z,122.6
2023-01-26T02:32:04.605Z,115.5
2023-01-26T02:34:31.467Z,116.7
2023-01-26T02:35:41.626Z,115.8
2023-01-26T02:36:51.796Z,105.6
2023-01-26T02:38:01.954Z,114.6
2023-01-26T02:39:12.118Z,109.6
2023-01-26T02:40:22.288Z,117.3
2023-01-26T02:41:32.448Z,120.3
2023-01-26T02:42:42.614Z,114
2023-01-26T02:43:52.774Z,117.8
2023-01-26T02:45:02.942Z,100.3
2023-01-26T02:46:13.102Z,108.4
2023-01-26T02:47:23.268Z,109
2023-01-26T02:48:33.424Z,93.9
2023-01-26T02:49:43.596Z,114.1
2023-01-26T02:50:53.756Z,102.3
2023-01-26T02:52:03.916Z,102.3
2023-01-26T02:53:14.082Z,106.9
2023-01-26T02:54:24.242Z,111.3
2023-01-26T02:55:34.412Z,102.4
2023-01-26T02:56:44.572Z,114
2023-01-26T02:57:54.738Z,103.1
2023-01-26T02:59:04.896Z,114.8
2023-01-26T03:00:15.067Z,107.4
2023-01-26T03:01:25.223Z,110.2
2023-01-26T03:02:35.389Z,96
2023-01-26T03:03:45.642Z,106.5
2023-01-26T03:04:55.881Z,107.1
2023-01-26T03:06:06.129Z,102.4
2023-01-26T03:07:16.376Z,102.8
2023-01-26T03:08:26.621Z,106.9
2023-01-26T03:09:36.873Z,103.5
2023-01-26T03:10:47.113Z,102.7
2023-01-26T03:11:57.357Z,107.6
2023-01-26T03:13:07.609Z,101.8
2023-01-26T03:14:17.853Z,103
2023-01-26T03:15:28.099Z,102.9
2023-01-26T03:16:38.349Z,116.4
2023-01-26T03:17:48.587Z,104.6
2023-01-26T03:19:29.626Z,104.2
2023-01-26T03:20:40.057Z,109.9
2023-01-26T03:21:50.489Z,108.4
2023-01-26T03:23:00.923Z,102.5
2023-01-26T03:24:11.357Z,101
2023-01-26T03:25:21.781Z,103.1
2023-01-26T03:26:32.211Z,105.4
2023-01-26T03:27:42.646Z,111.5
2023-01-26T03:28:53.074Z,102.7
2023-01-26T03:30:03.511Z,112
2023-01-26T03:31:13.938Z,106.6
2023-01-26T03:32:24.373Z,116.1
2023-01-26T03:33:34.801Z,112.4
2023-01-26T03:34:45.614Z,102.4
2023-01-26T03:35:59.746Z,98.9
2023-01-26T03:37:13.869Z,107.6
2023-01-26T03:38:28.003Z,107.9
2023-01-26T03:39:41.491Z,109.6
2023-01-26T03:40:51.655Z,99.7
2023-01-26T03:42:01.815Z,103.3
2023-01-26T03:43:11.979Z,99.7
2023-01-26T03:44:22.143Z,100.8
2023-01-26T03:45:32.301Z,93.5
2023-01-26T03:46:42.469Z,105.5
2023-01-26T03:47:52.631Z,93
2023-01-26T03:49:02.793Z,109
2023-01-26T03:50:12.957Z,95.2
2023-01-26T03:51:23.118Z,101.9
2023-01-26T03:52:33.287Z,100.6
2023-01-26T03:53:43.444Z,110.6
2023-01-26T03:54:53.612Z,104.7
2023-01-26T03:56:03.772Z,99.2
2023-01-26T03:57:13.934Z,98.1
2023-01-26T03:58:24.104Z,87.1
2023-01-26T03:59:34.266Z,86.6
2023-01-26T04:00:44.431Z,87
2023-01-26T04:01:54.590Z,87.4
2023-01-26T04:03:04.758Z,81.6
2023-01-26T04:04:14.916Z,78.1
2023-01-26T04:05:25.085Z,73.3
2023-01-26T04:06:35.243Z,76.4
2023-01-26T04:07:45.409Z,77
2023-01-26T04:08:55.661Z,77.7
2023-01-26T04:10:05.903Z,81.5
2023-01-26T04:11:16.144Z,83.9
2023-01-26T04:12:26.392Z,90.6
2023-01-26T04:13:36.645Z,80.9
2023-01-26T04:14:46.886Z,74.3
2023-01-26T04:15:57.132Z,77.2
2023-01-26T04:17:07.376Z,71.2
2023-01-26T04:18:17.618Z,82
2023-01-26T04:19:27.870Z,80.1
2023-01-26T04:20:38.110Z,76.2
2023-01-26T04:21:48.362Z,76
2023-01-26T04:22:58.602Z,75.9
2023-01-26T04:24:09.047Z,73.1
2023-01-26T04:25:19.475Z,76.8
2023-01-26T04:26:29.907Z,69.2
2023-01-26T04:27:40.336Z,72.2
2023-01-26T04:28:50.767Z,78.7
2023-01-26T04:30:01.198Z,82.6
2023-01-26T04:31:11.629Z,76.8
2023-01-26T04:32:22.056Z,80.7
2023-01-26T04:33:32.490Z,83.4
2023-01-26T04:34:42.920Z,75.4
2023-01-26T04:35:53.352Z,84.8
2023-01-26T04:37:03.788Z,76.1
2023-01-26T04:38:14.214Z,79.1
2023-01-26T04:40:52.548Z,77
2023-01-26T04:42:06.676Z,81.3
2023-01-26T04:43:20.807Z,79.9
2023-01-26T04:44:31.608Z,74.8
2023-01-26T04:45:42.409Z,83.6
2023-01-26T04:46:56.537Z,87.8
2023-01-26T04:48:10.663Z,77.2
2023-01-26T04:49:24.789Z,75.1
2023-01-26T04:50:38.926Z,74.7
2023-01-26T04:51:53.051Z,80.8
2023-01-26T04:53:07.183Z,76.3
2023-01-26T04:54:21.313Z,81.6
2023-01-26T04:55:35.433Z,79.8
2023-01-26T04:56:57.829Z,76.7
2023-01-26T04:59:17.134Z,80.5
2023-01-26T05:00:27.245Z,88.5
2023-01-26T05:01:37.367Z,83.2
2023-01-26T05:02:47.484Z,80.8
2023-01-26T05:03:57.595Z,76.8
2023-01-26T05:05:07.716Z,79.8
2023-01-26T05:06:17.836Z,84.3
2023-01-26T05:07:27.954Z,81.6
2023-01-26T05:08:38.066Z,81.8
2023-01-26T05:09:48.184Z,88
2023-01-26T05:10:58.297Z,77.9
2023-01-26T05:12:08.422Z,79.2
2023-01-26T05:13:18.534Z,77.5
2023-01-26T05:14:28.650Z,74.5
2023-01-26T05:15:38.768Z,77.3
2023-01-26T05:16:48.889Z,76.1
2023-01-26T05:17:59.004Z,77.4
2023-01-26T05:19:09.116Z,81.7
2023-01-26T05:20:19.238Z,80.2
2023-01-26T05:21:29.356Z,91.6
2023-01-26T05:22:39.471Z,80.1
2023-01-26T05:23:49.585Z,82.8
2023-01-26T05:24:59.700Z,89
2023-01-26T05:26:09.825Z,85.9
2023-01-26T05:27:19.943Z,78.1
2023-01-26T05:28:30.107Z,75.4
2023-01-26T05:29:40.267Z,74.7
2023-01-26T05:32:00.597Z,85.8
2023-01-26T05:33:10.753Z,89
2023-01-26T05:34:20.923Z,79.5
2023-01-26T05:35:31.088Z,77.1
2023-01-26T05:36:41.251Z,78.1
2023-01-26T05:37:51.415Z,77.9
2023-01-26T05:39:01.570Z,76.2
2023-01-26T05:40:11.733Z,88.4
2023-01-26T05:41:21.900Z,87.6
2023-01-26T05:42:32.064Z,82.5
2023-01-26T05:43:42.312Z,74.6
2023-01-26T05:44:52.557Z,75.9
2023-01-26T05:46:02.810Z,73.9
2023-01-26T05:47:13.048Z,75.6
2023-01-26T05:48:23.300Z,80.9
2023-01-26T05:49:33.542Z,77.5
2023-01-26T05:50:43.792Z,73.4
2023-01-26T05:51:54.032Z,78
2023-01-26T05:53:04.276Z,73.8
2023-01-26T05:54:14.526Z,89.1
2023-01-26T05:55:24.776Z,71.9
2023-01-26T05:56:35.016Z,78.7
2023-01-26T05:57:45.259Z,81.4
2023-01-26T06:00:23.396Z,76.4
2023-01-26T06:01:33.834Z,76.6
2023-01-26T06:02:44.261Z,82.9
2023-01-26T06:03:54.693Z,77
2023-01-26T06:05:05.124Z,71.5
2023-01-26T06:06:15.556Z,80.2
2023-01-26T06:07:25.990Z,70.5
2023-01-26T06:08:36.418Z,71.6
2023-01-26T06:09:46.852Z,63
2023-01-26T06:10:57.281Z,64.5
2023-01-26T06:12:07.718Z,66.5
2023-01-26T06:13:18.147Z,63.1
2023-01-26T06:14:28.574Z,67.4
2023-01-26T06:15:39.382Z,64.6
2023-01-26T06:16:53.512Z,72
2023-01-26T06:18:07.645Z,67.4
2023-01-26T06:19:21.767Z,66.4
2023-01-26T06:20:35.903Z,63.9
2023-01-26T06:21:50.030Z,59.2
2023-01-26T06:23:04.155Z,61.6
2023-01-26T06:24:18.287Z,59.5
2023-01-26T06:25:32.415Z,66.6
2023-01-26T06:26:46.545Z,57.3
2023-01-26T06:28:00.676Z,62.3
2023-01-26T06:29:14.799Z,56.1
2023-01-26T06:30:28.927Z,62.5
2023-01-26T06:34:12.072Z,64.2
2023-01-26T06:36:40.326Z,63.4
2023-01-26T06:39:07.186Z,59.3
2023-01-26T06:40:17.355Z,61.2
2023-01-26T06:41:27.513Z,62.2
2023-01-26T06:42:37.679Z,61.7
2023-01-26T06:43:47.845Z,62.5
2023-01-26T06:44:58.001Z,60.6
2023-01-26T06:46:08.167Z,60.5
2023-01-26T06:47:18.331Z,64.6
2023-01-26T06:48:28.499Z,68.5
2023-01-26T06:49:38.657Z,59.9
2023-01-26T06:50:48.822Z,66
2023-01-26T06:51:58.990Z,61
2023-01-26T06:53:09.148Z,64.9
2023-01-26T06:54:19.312Z,70.2
2023-01-26T06:55:29.472Z,70.6
2023-01-26T06:56:39.640Z,71.3
2023-01-26T06:57:49.802Z,63.4
2023-01-26T06:58:59.969Z,63.3
2023-01-26T07:00:10.126Z,56.9
2023-01-26T07:01:20.290Z,69.9
2023-01-26T07:02:30.454Z,73.1
2023-01-26T07:03:40.617Z,71.1
2023-01-26T07:04:50.779Z,66.3
2023-01-26T07:06:00.950Z,60.7
2023-01-26T07:07:11.104Z,69.8
2023-01-26T07:08:21.359Z,66.8
2023-01-26T07:09:31.607Z,62.6
2023-01-26T07:11:52.091Z,62.6
2023-01-26T07:13:02.341Z,69.9
2023-01-26T07:14:12.589Z,55.3
2023-01-26T07:15:22.834Z,58
2023-01-26T07:16:33.083Z,61.5
2023-01-26T07:17:43.322Z,64.2
2023-01-26T07:18:53.573Z,61
2023-01-26T07:20:03.812Z,69.8
2023-01-26T07:21:14.066Z,60
2023-01-26T07:22:24.306Z,65.1
2023-01-26T07:23:34.751Z,61.6
2023-01-26T07:24:45.172Z,59.9
2023-01-26T07:25:55.613Z,62.1
2023-01-26T07:27:06.036Z,63.6
2023-01-26T07:28:16.467Z,67.9
2023-01-26T07:29:26.903Z,65.6
2023-01-26T07:30:37.332Z,64.5
2023-01-26T07:31:47.769Z,69.3
2023-01-26T07:32:58.191Z,63.4
2023-01-26T07:34:08.627Z,62
2023-01-26T07:35:19.060Z,61
2023-01-26T07:36:29.491Z,64.6
2023-01-26T07:37:39.916Z,64.1
2023-01-26T07:40:19.482Z,59.6
2023-01-26T07:41:33.612Z,65
2023-01-26T07:42:47.736Z,69.8
2023-01-26T07:43:57.498Z,69
2023-01-26T07:45:07.618Z,71.1
2023-01-26T07:46:17.734Z,71.8
2023-01-26T07:47:27.846Z,64.1
2023-01-26T07:48:37.964Z,71.9
2023-01-26T07:49:48.085Z,65.3
2023-01-26T07:50:58.195Z,73.4
2023-01-26T07:52:08.317Z,67.6
2023-01-26T07:53:18.427Z,73
2023-01-26T07:54:28.547Z,69.6
2023-01-26T07:55:38.663Z,59.4
2023-01-26T07:56:48.779Z,73.8
2023-01-26T07:57:58.897Z,64.9
2023-01-26T07:59:09.013Z,58.8
2023-01-26T08:00:19.131Z,63.7
2023-01-26T08:01:29.248Z,60.4
2023-01-26T08:02:39.365Z,61.4
2023-01-26T08:03:49.487Z,60.8
2023-01-26T08:04:59.596Z,59.3
2023-01-26T08:06:09.717Z,54.6
2023-01-26T08:07:19.831Z,57.7
2023-01-26T08:08:29.957Z,53.6
2023-01-26T08:09:40.065Z,52.3
2023-01-26T08:10:50.185Z,55.1
2023-01-26T08:12:00.307Z,56.8
2023-01-26T08:13:10.473Z,57.5
2023-01-26T08:14:20.635Z,55.9
2023-01-26T08:15:30.795Z,54.8
2023-01-26T08:16:40.964Z,59.9
2023-01-26T08:17:51.121Z,59.5
2023-01-26T08:19:01.289Z,55.3
2023-01-26T08:20:11.453Z,57.4
2023-01-26T08:21:21.615Z,53.1
2023-01-26T08:22:31.779Z,52.9
2023-01-26T08:23:41.945Z,55.2
2023-01-26T08:24:52.101Z,54.7
2023-01-26T08:26:02.269Z,56.6
2023-01-26T08:27:12.432Z,59.1
2023-01-26T08:28:22.683Z,58.3
2023-01-26T08:29:32.923Z,58
2023-01-26T08:30:43.167Z,56.3
2023-01-26T08:31:53.421Z,55.3
2023-01-26T08:33:03.661Z,56.8
2023-01-26T08:34:13.905Z,59.6
2023-01-26T08:35:24.152Z,68.1
2023-01-26T08:36:34.403Z,57.4
2023-01-26T08:37:44.644Z,56.3
2023-01-26T08:38:54.888Z,60.4
2023-01-26T08:40:05.135Z,51.3
2023-01-26T08:41:15.386Z,55.3
2023-01-26T08:42:25.632Z,60.3
2023-01-26T08:43:36.063Z,54.8
2023-01-26T08:45:12.608Z,61.8
2023-01-26T08:46:23.036Z,65.2
2023-01-26T08:47:33.471Z,59.4
2023-01-26T08:48:43.904Z,57.6
2023-01-26T08:49:54.330Z,59.1
2023-01-26T08:51:04.761Z,58.5
2023-01-26T08:52:15.196Z,61.3
2023-01-26T08:53:25.624Z,65.4
2023-01-26T08:54:36.056Z,55.9
2023-01-26T08:55:46.482Z,62.6
2023-01-26T08:56:56.922Z,62.2
2023-01-26T08:58:07.350Z,63
2023-01-26T09:00:46.357Z,71.1
2023-01-26T09:02:00.492Z,66.6
2023-01-26T09:03:14.618Z,84.7
2023-01-26T09:04:25.414Z,75.2
2023-01-26T09:05:36.220Z,80.6
2023-01-26T09:06:50.351Z,79.8
2023-01-26T09:08:04.480Z,72.4
2023-01-26T09:09:18.608Z,87.8
2023-01-26T09:10:32.732Z,71.5
2023-01-26T09:11:46.858Z,73.6
2023-01-26T09:13:00.993Z,100.2
2023-01-26T09:14:15.122Z,70.4
2023-01-26T09:15:29.246Z,75.5
2023-01-26T09:16:51.643Z,97.5
2023-01-26T09:19:10.941Z,83.2
2023-01-26T09:20:21.061Z,92.8
2023-01-26T09:21:31.173Z,95.7
2023-01-26T09:22:41.287Z,86.7
2023-01-26T09:23:51.411Z,126.9
2023-01-26T09:25:01.527Z,122.9
2023-01-26T09:26:11.641Z,149.8
2023-01-26T09:27:21.761Z,115.1
2023-01-26T09:28:31.875Z,134.2
2023-01-26T09:29:41.997Z,130
2023-01-26T09:30:52.106Z,131.6
2023-01-26T09:32:02.225Z,112.6
2023-01-26T09:33:12.347Z,106.7
2023-01-26T09:34:22.457Z,112.8
2023-01-26T09:35:32.583Z,99
2023-01-26T09:36:42.693Z,130.7
2023-01-26T09:37:52.816Z,110.2
2023-01-26T09:39:02.927Z,119.8
2023-01-26T09:40:13.050Z,121.6
2023-01-26T09:41:23.161Z,111.2
2023-01-26T09:42:33.283Z,120.4
2023-01-26T09:43:43.394Z,121.3
2023-01-26T09:44:53.516Z,124.2
2023-01-26T09:46:03.634Z,154.9
2023-01-26T09:47:13.748Z,114.7
2023-01-26T09:48:23.913Z,126.6
2023-01-26T09:49:34.072Z,109.8
2023-01-26T09:50:44.238Z,158
2023-01-26T09:51:54.402Z,140.6
2023-01-26T09:53:04.566Z,147.8
2023-01-26T09:54:14.730Z,143.9
2023-01-26T09:55:24.894Z,145.2
2023-01-26T09:56:35.054Z,161.8
2023-01-26T09:57:45.222Z,131.2
2023-01-26T09:58:55.380Z,154
2023-01-26T10:00:05.550Z,161.9
2023-01-26T10:01:15.706Z,146.5
2023-01-26T10:02:25.876Z,177.6
2023-01-26T10:03:36.120Z,144.2
2023-01-26T10:04:46.372Z,151.6
2023-01-26T10:05:56.617Z,189.7
2023-01-26T10:07:06.863Z,134.7
2023-01-26T10:08:17.103Z,131.3
2023-01-26T10:09:27.349Z,131.8
2023-01-26T10:10:37.602Z,162
2023-01-26T10:11:47.843Z,149.3
2023-01-26T10:12:58.091Z,202.4
2023-01-26T10:14:08.335Z,190.8
2023-01-26T10:15:18.581Z,163.4
2023-01-26T10:16:28.825Z,205.4
2023-01-26T10:17:39.069Z,164.2
2023-01-26T10:20:17.687Z,174.6
2023-01-26T10:21:28.116Z,207.5
2023-01-26T10:22:38.554Z,189.8
2023-01-26T10:23:48.983Z,224.2
2023-01-26T10:24:59.411Z,192.1
2023-01-26T10:26:09.845Z,201
2023-01-26T10:27:20.276Z,195.9
2023-01-26T10:28:30.708Z,158.4
2023-01-26T10:29:41.133Z,176.8
2023-01-26T10:30:51.571Z,311.3
2023-01-26T10:32:01.998Z,193.3
2023-01-26T10:33:12.430Z,202.9
2023-01-26T10:34:22.862Z,161.3
2023-01-26T10:35:33.672Z,228.6
2023-01-26T10:36:47.800Z,212.8
2023-01-26T10:38:01.930Z,170.4
2023-01-26T10:39:16.056Z,181.3
2023-01-26T10:40:30.183Z,219.2
2023-01-26T10:41:44.314Z,179.7
2023-01-26T10:42:58.436Z,185
2023-01-26T10:44:12.564Z,284.6
2023-01-26T10:45:26.694Z,158.9
2023-01-26T10:46:40.824Z,170.7
2023-01-26T10:47:54.958Z,172.3
2023-01-26T10:49:09.084Z,167.4
2023-01-26T10:50:23.213Z,164.2
2023-01-26T10:54:06.349Z,204.4
2023-01-26T10:56:34.614Z,152.1
2023-01-26T10:59:02.864Z,201.7
2023-01-26T11:00:14.408Z,259.2
2023-01-26T11:01:31.124Z,166.8
2023-01-26T11:03:59.382Z,266.2
2023-01-26T11:06:26.194Z,155.2
2023-01-26T11:07:36.309Z,136.1
2023-01-26T11:08:46.422Z,195.9
2023-01-26T11:09:56.539Z,199.2
2023-01-26T11:11:06.661Z,202.1
2023-01-26T11:12:16.777Z,271
2023-01-26T11:13:26.887Z,208.8
2023-01-26T11:14:37.007Z,266.4
2023-01-26T11:15:47.127Z,156.6
2023-01-26T11:16:57.243Z,300.5
2023-01-26T11:18:07.361Z,226.2
2023-01-26T11:19:17.474Z,251.5
2023-01-26T11:20:27.594Z,202.6
2023-01-26T11:21:37.706Z,216.3
2023-01-26T11:22:47.825Z,208.2
2023-01-26T11:23:57.942Z,212.5
2023-01-26T11:25:08.057Z,265.3
2023-01-26T11:26:18.179Z,197.5
2023-01-26T11:27:28.299Z,211.6
2023-01-26T11:28:38.417Z,226.4
2023-01-26T11:29:48.527Z,288.3
2023-01-26T11:30:58.650Z,197.2
2023-01-26T11:32:08.763Z,244.5
2023-01-26T11:33:18.885Z,272.7
2023-01-26T11:34:29.005Z,194
2023-01-26T11:35:39.171Z,205.5
2023-01-26T11:36:49.334Z,210.8
2023-01-26T11:37:59.492Z,185.5
2023-01-26T11:39:09.658Z,205.7
2023-01-26T11:40:19.816Z,162.3
2023-01-26T11:41:29.984Z,199.5
2023-01-26T11:42:40.148Z,194.5
2023-01-26T11:43:50.307Z,230.8
2023-01-26T11:45:00.471Z,231.9
2023-01-26T11:46:10.633Z,200.8
2023-01-26T11:47:20.801Z,421.2
2023-01-26T11:48:30.963Z,208.7
2023-01-26T11:49:41.128Z,271.6
2023-01-26T11:50:51.378Z,191.8
2023-01-26T11:52:01.624Z,298.2
2023-01-26T11:53:11.873Z,263.4
2023-01-26T11:54:22.116Z,253.9
2023-01-26T11:55:32.362Z,256.4
2023-01-26T11:56:42.605Z,203.4
2023-01-26T11:57:52.857Z,212.3
2023-01-26T11:59:03.095Z,245.7
2023-01-26T12:00:13.347Z,308.9
2023-01-26T12:02:33.833Z,291.8
2023-01-26T12:03:44.079Z,194.7
2023-01-26T12:04:54.323Z,272.3
2023-01-26T12:07:32.665Z,271.1
2023-01-26T12:08:43.099Z,327.7
2023-01-26T12:09:53.533Z,383.3
2023-01-26T12:11:03.955Z,306.4
2023-01-26T12:12:14.390Z,375.7
2023-01-26T12:13:24.825Z,358.2
2023-01-26T12:14:35.253Z,303.1
2023-01-26T12:15:45.689Z,298.8
2023-01-26T12:16:56.118Z,262.5
2023-01-26T12:18:06.546Z,335.2
2023-01-26T12:19:16.982Z,198.3
2023-01-26T12:21:37.842Z,240
2023-01-26T12:22:48.652Z,344.5
2023-01-26T12:24:02.774Z,277.5
2023-01-26T12:25:16.907Z,240.8
2023-01-26T12:26:31.032Z,246.2
2023-01-26T12:27:45.164Z,263.6
2023-01-26T12:28:59.293Z,254.6
2023-01-26T12:30:13.421Z,273.6
2023-01-26T12:31:27.547Z,235.6
2023-01-26T12:32:41.674Z,233.5
2023-01-26T12:33:55.810Z,152.5
2023-01-26T12:35:09.932Z,219.2
2023-01-26T12:36:24.064Z,209.7
2023-01-26T12:37:38.193Z,192.1
2023-01-26T12:41:21.331Z,137.6
2023-01-26T12:43:49.585Z,101.1
2023-01-26T12:46:17.842Z,117.5
2023-01-26T12:47:28.150Z,90.8
2023-01-26T12:48:44.696Z,95.2
2023-01-26T12:49:54.860Z,83.1
2023-01-26T12:51:05.024Z,63
2023-01-26T12:52:15.184Z,53.7
2023-01-26T12:53:25.352Z,59.2
2023-01-26T12:54:35.514Z,90.9
2023-01-26T12:55:45.678Z,70.3
2023-01-26T12:56:55.840Z,80.1
2023-01-26T12:58:06.000Z,77
2023-01-26T12:59:16.166Z,83.1
2023-01-26T13:00:26.332Z,83.6
2023-01-26T13:01:36.497Z,68.9
2023-01-26T13:02:46.660Z,81.2
2023-01-26T13:03:56.819Z,87.1
2023-01-26T13:05:06.984Z,85.6
2023-01-26T13:06:17.148Z,90.5
2023-01-26T13:07:27.313Z,108.7
2023-01-26T13:08:37.472Z,75.2
2023-01-26T13:09:47.632Z,91.2
2023-01-26T13:10:57.800Z,90.1
2023-01-26T13:12:07.967Z,85.5
2023-01-26T13:13:18.124Z,97.7
2023-01-26T13:14:28.290Z,95.5
2023-01-26T13:15:38.450Z,89.9
2023-01-26T13:16:48.701Z,92.8
2023-01-26T13:17:58.950Z,88.6
2023-01-26T13:19:09.192Z,95.8
2023-01-26T13:20:19.443Z,82.9
2023-01-26T13:21:29.690Z,83
2023-01-26T13:22:39.934Z,90.3
2023-01-26T13:23:50.174Z,84.7
2023-01-26T13:25:00.422Z,99.3
2023-01-26T13:26:10.668Z,102
2023-01-26T13:27:20.910Z,95.8
2023-01-26T13:28:31.158Z,82.5
2023-01-26T13:29:41.406Z,67.8
2023-01-26T13:30:51.654Z,63.1
2023-01-26T13:32:02.092Z,65.1
2023-01-26T13:33:12.523Z,68.8
2023-01-26T13:35:33.385Z,60.8
2023-01-26T13:36:43.812Z,78.3
2023-01-26T13:37:54.243Z,78.8
2023-01-26T13:39:04.676Z,78.4
2023-01-26T13:40:15.104Z,68.9
2023-01-26T13:41:25.540Z,90
2023-01-26T13:42:35.972Z,63.4
2023-01-26T13:43:46.397Z,64.6
2023-01-26T13:44:56.828Z,61.6
2023-01-26T13:46:07.262Z,54.1
2023-01-26T13:48:45.354Z,56.2
2023-01-26T13:49:59.481Z,53.7
2023-01-26T13:51:13.603Z,55
2023-01-26T13:52:24.405Z,52.9
2023-01-26T13:53:35.215Z,39.2
2023-01-26T13:54:49.338Z,50.6
2023-01-26T13:56:03.467Z,44
2023-01-26T13:57:17.601Z,46.3
2023-01-26T13:58:31.722Z,42
2023-01-26T13:59:45.855Z,52.7
2023-01-26T14:00:59.983Z,42.7
2023-01-26T14:02:14.111Z,50.6
2023-01-26T14:03:28.240Z,50.5
2023-01-26T14:04:50.637Z,57.6
2023-01-26T14:07:11.385Z,57.2
2023-01-26T14:09:39.633Z,51.1
2023-01-26T14:12:07.898Z,66.3
2023-01-26T14:14:36.146Z,64.8
2023-01-26T14:17:04.408Z,60.2
2023-01-26T14:19:32.660Z,72.3
2023-01-26T14:22:00.919Z,60
2023-01-26T14:24:29.175Z,67.5
2023-01-26T14:26:57.437Z,71.1
2023-01-26T14:29:25.689Z,67.6
2023-01-26T14:30:37.233Z,67.3
2023-01-26T14:31:53.947Z,55.2
2023-01-26T14:36:50.464Z,59.1
2023-01-26T14:39:18.717Z,56.1
2023-01-26T14:41:46.980Z,82.4
2023-01-26T14:44:15.232Z,68.6
2023-01-26T14:46:43.487Z,71.1
2023-01-26T14:49:11.751Z,61.3
2023-01-26T14:51:40.009Z,53.1
2023-01-26T14:54:08.267Z,69.6
2023-01-26T14:55:18.510Z,64.8
2023-01-26T14:56:28.633Z,60.6
2023-01-26T14:57:38.752Z,61.9
2023-01-26T14:58:48.869Z,52.7
2023-01-26T14:59:58.979Z,56.5
2023-01-26T15:01:09.099Z,58.4
2023-01-26T15:02:19.213Z,53.5
2023-01-26T15:03:29.333Z,51.6
2023-01-26T15:04:39.445Z,57.7
2023-01-26T15:05:49.566Z,62.8
2023-01-26T15:06:59.683Z,65
2023-01-26T15:08:09.796Z,65.7
2023-01-26T15:09:19.914Z,66.1
2023-01-26T15:10:30.035Z,62
2023-01-26T15:11:40.149Z,65.8
2023-01-26T15:12:50.267Z,67.2
2023-01-26T15:14:00.384Z,61.8
2023-01-26T15:15:10.499Z,62.5
2023-01-26T15:16:20.619Z,64.8
2023-01-26T15:17:30.741Z,61.2
2023-01-26T15:18:40.851Z,73.5
2023-01-26T15:19:50.971Z,67.4
2023-01-26T15:21:01.085Z,65.9
2023-01-26T15:22:11.203Z,69.3
2023-01-26T15:23:21.321Z,68.6
2023-01-26T15:24:31.486Z,68
2023-01-26T15:25:41.650Z,66.3
2023-01-26T15:26:51.814Z,75.5
2023-01-26T15:28:01.984Z,72.1
2023-01-26T15:29:12.142Z,64.7
2023-01-26T15:30:22.306Z,71.4
2023-01-26T15:31:32.470Z,67.5
2023-01-26T15:32:42.631Z,65.4
2023-01-26T15:33:52.795Z,78.4
2023-01-26T15:35:02.963Z,69.8
2023-01-26T15:36:13.121Z,71.7
2023-01-26T15:38:33.453Z,77.1
2023-01-26T15:39:43.697Z,67.6
2023-01-26T15:40:53.946Z,62
2023-01-26T15:43:14.435Z,64
2023-01-26T15:44:24.680Z,65.5
2023-01-26T15:45:34.931Z,63.7
2023-01-26T15:46:45.178Z,62.7
2023-01-26T15:47:55.421Z,68.3
2023-01-26T15:49:05.671Z,63.5
2023-01-26T15:50:15.917Z,59.5
2023-01-26T15:51:26.162Z,56.1
2023-01-26T15:52:36.409Z,62.4
2023-01-26T15:53:46.653Z,60.3
2023-01-26T15:56:25.597Z,60.5
2023-01-26T15:57:36.031Z,51.5
2023-01-26T15:58:46.467Z,45.8
2023-01-26T15:59:56.890Z,48
2023-01-26T16:01:07.322Z,50.2
2023-01-26T16:02:17.756Z,41.7
2023-01-26T16:03:28.191Z,45.3
2023-01-26T16:04:38.615Z,41.9
2023-01-26T16:05:49.046Z,42.9
2023-01-26T16:06:59.481Z,39.9
2023-01-26T16:08:09.908Z,40.2
2023-01-26T16:09:20.346Z,32.4
2023-01-26T16:10:30.771Z,42
2023-01-26T16:11:41.580Z,38.3
2023-01-26T16:12:55.716Z,38.8
2023-01-26T16:14:09.841Z,40.6
2023-01-26T16:15:23.970Z,42.1
2023-01-26T16:16:38.094Z,37.4
2023-01-26T16:17:52.228Z,37.9
2023-01-26T16:19:06.358Z,38
2023-01-26T16:20:20.486Z,48.5
2023-01-26T16:21:34.608Z,41.5
2023-01-26T16:22:48.738Z,43.8
2023-01-26T16:24:02.874Z,54.5
2023-01-26T16:25:16.996Z,47.6
2023-01-26T16:26:31.123Z,49.3
2023-01-26T16:30:14.265Z,37.7
2023-01-26T16:32:42.523Z,46.9
2023-01-26T16:35:09.388Z,34.7
2023-01-26T16:36:19.552Z,37.3
2023-01-26T16:37:29.716Z,37.7
2023-01-26T16:38:39.876Z,38
2023-01-26T16:39:50.034Z,41.3
2023-01-26T16:41:00.200Z,39
2023-01-26T16:42:10.364Z,47.8
2023-01-26T16:43:20.525Z,31.5
2023-01-26T16:44:30.746Z,30.2
2023-01-26T16:45:40.853Z,31.3
2023-01-26T16:46:51.018Z,36
2023-01-26T16:48:01.182Z,30.5
2023-01-26T16:49:11.349Z,38.5
2023-01-26T16:50:21.511Z,31.9
2023-01-26T16:51:31.673Z,33.2
2023-01-26T16:52:41.839Z,32.3